Aviation Digital Data Service (ADDS)

Output produced by METARs form (1416 UTC 24 August 2019)
found at http://www.aviationweather.gov/metar/data/
 
METAR text: EINN 241400Z 26006KT 9999 FEW021 BKN030 BKN120 21/16 Q1013 NOSIG
Conditions at: EINN (SHANNON AIRPORT , IE) observed 1400 UTC 24 August 2019
Temperature: 21.0°C (70°F)
Dewpoint: 16.0°C (61°F) [RH = 73%]
Pressure (altimeter): 29.91 inches Hg (1013.0 mb)
Winds: from the W (260 degrees) at 7 MPH (6 knots; 3.1 m/s)
Visibility: 6 or more miles (10+ km)
Ceiling: 3000 feet AGL
Clouds: few clouds at 2100 feet AGL
broken clouds at 3000 feet AGL
broken clouds at 12000 feet AGL
Weather: no significant weather observed at this time

METAR text: EINN 241330Z 25006KT 9999 FEW021 SCT024 BKN120 21/17 Q1013 NOSIG
Conditions at: EINN (SHANNON AIRPORT , IE) observed 1330 UTC 24 August 2019
Temperature: 21.0°C (70°F)
Dewpoint: 17.0°C (63°F) [RH = 78%]
Pressure (altimeter): 29.91 inches Hg (1013.0 mb)
Winds: from the WSW (250 degrees) at 7 MPH (6 knots; 3.1 m/s)
Visibility: 6 or more miles (10+ km)
Ceiling: 12000 feet AGL
Clouds: few clouds at 2100 feet AGL
scattered clouds at 2400 feet AGL
broken clouds at 12000 feet AGL
Weather: no significant weather observed at this time

METAR text: EINN 241300Z 23005KT 160V280 9999 FEW021 BKN130 BKN160 21/16 Q1013 NOSIG
Conditions at: EINN (SHANNON AIRPORT , IE) observed 1300 UTC 24 August 2019
Temperature: 21.0°C (70°F)
Dewpoint: 16.0°C (61°F) [RH = 73%]
Pressure (altimeter): 29.91 inches Hg (1013.0 mb)
Winds: from the SW (230 degrees) at 6 MPH (5 knots; 2.6 m/s)
Visibility: 6 or more miles (10+ km)
Ceiling: 13000 feet AGL
Clouds: few clouds at 2100 feet AGL
broken clouds at 13000 feet AGL
broken clouds at 16000 feet AGL
Weather: no significant weather observed at this time

METAR text: EINN 241230Z 19005KT 9999 FEW018 SCT120 BKN160 21/16 Q1013 NOSIG
Conditions at: EINN (SHANNON AIRPORT , IE) observed 1230 UTC 24 August 2019
Temperature: 21.0°C (70°F)
Dewpoint: 16.0°C (61°F) [RH = 73%]
Pressure (altimeter): 29.91 inches Hg (1013.0 mb)
Winds: from the S (190 degrees) at 6 MPH (5 knots; 2.6 m/s)
Visibility: 6 or more miles (10+ km)
Ceiling: 16000 feet AGL
Clouds: few clouds at 1800 feet AGL
scattered clouds at 12000 feet AGL
broken clouds at 16000 feet AGL
Weather: no significant weather observed at this time

METAR text: EINN 241200Z 16005KT 140V200 9999 FEW018 SCT120 BKN160 20/16 Q1013 NOSIG
Conditions at: EINN (SHANNON AIRPORT , IE) observed 1200 UTC 24 August 2019
Temperature: 20.0°C (68°F)
Dewpoint: 16.0°C (61°F) [RH = 78%]
Pressure (altimeter): 29.91 inches Hg (1013.0 mb)
Winds: from the SSE (160 degrees) at 6 MPH (5 knots; 2.6 m/s)
Visibility: 6 or more miles (10+ km)
Ceiling: 16000 feet AGL
Clouds: few clouds at 1800 feet AGL
scattered clouds at 12000 feet AGL
broken clouds at 16000 feet AGL
Weather: no significant weather observed at this time

METAR text: EINN 241130Z 17007KT 9999 FEW017 SCT110 BKN160 20/16 Q1013 NOSIG
Conditions at: EINN (SHANNON AIRPORT , IE) observed 1130 UTC 24 August 2019
Temperature: 20.0°C (68°F)
Dewpoint: 16.0°C (61°F) [RH = 78%]
Pressure (altimeter): 29.91 inches Hg (1013.0 mb)
Winds: from the S (170 degrees) at 8 MPH (7 knots; 3.6 m/s)
Visibility: 6 or more miles (10+ km)
Ceiling: 16000 feet AGL
Clouds: few clouds at 1700 feet AGL
scattered clouds at 11000 feet AGL
broken clouds at 16000 feet AGL
Weather: no significant weather observed at this time

METAR text: EINN 241100Z 12009KT 9999 FEW015 BKN120 20/15 Q1013 NOSIG
Conditions at: EINN (SHANNON AIRPORT , IE) observed 1100 UTC 24 August 2019
Temperature: 20.0°C (68°F)
Dewpoint: 15.0°C (59°F) [RH = 73%]
Pressure (altimeter): 29.91 inches Hg (1013.0 mb)
Winds: from the ESE (120 degrees) at 10 MPH (9 knots; 4.6 m/s)
Visibility: 6 or more miles (10+ km)
Ceiling: 12000 feet AGL
Clouds: few clouds at 1500 feet AGL
broken clouds at 12000 feet AGL
Weather: no significant weather observed at this time

METAR text: EINN 241030Z 13012KT 9999 FEW014 SCT018 BKN120 19/15 Q1013 NOSIG
Conditions at: EINN (SHANNON AIRPORT , IE) observed 1030 UTC 24 August 2019
Temperature: 19.0°C (66°F)
Dewpoint: 15.0°C (59°F) [RH = 78%]
Pressure (altimeter): 29.91 inches Hg (1013.0 mb)
Winds: from the SE (130 degrees) at 14 MPH (12 knots; 6.2 m/s)
Visibility: 6 or more miles (10+ km)
Ceiling: 12000 feet AGL
Clouds: few clouds at 1400 feet AGL
scattered clouds at 1800 feet AGL
broken clouds at 12000 feet AGL
Weather: no significant weather observed at this time

METAR text: EINN 241000Z 13008KT 9999 BKN014 BKN120 18/15 Q1014 NOSIG
Conditions at: EINN (SHANNON AIRPORT , IE) observed 1000 UTC 24 August 2019
Temperature: 18.0°C (64°F)
Dewpoint: 15.0°C (59°F) [RH = 83%]
Pressure (altimeter): 29.94 inches Hg (1014.0 mb)
Winds: from the SE (130 degrees) at 9 MPH (8 knots; 4.1 m/s)
Visibility: 6 or more miles (10+ km)
Ceiling: 1400 feet AGL
Clouds: broken clouds at 1400 feet AGL
broken clouds at 12000 feet AGL
Weather: no significant weather observed at this time

METAR text: EINN 240930Z 14005KT 9000 BKN014 BKN120 18/15 Q1014 NOSIG
Conditions at: EINN (SHANNON AIRPORT , IE) observed 0930 UTC 24 August 2019
Temperature: 18.0°C (64°F)
Dewpoint: 15.0°C (59°F) [RH = 83%]
Pressure (altimeter): 29.94 inches Hg (1014.0 mb)
Winds: from the SE (140 degrees) at 6 MPH (5 knots; 2.6 m/s)
Visibility: 6 miles ( 9 km)
Ceiling: 1400 feet AGL
Clouds: broken clouds at 1400 feet AGL
broken clouds at 12000 feet AGL
Weather: no significant weather observed at this time

METAR text: EINN 240900Z 13007KT 9000 SCT014 BKN120 17/15 Q1014 NOSIG
Conditions at: EINN (SHANNON AIRPORT , IE) observed 0900 UTC 24 August 2019
Temperature: 17.0°C (63°F)
Dewpoint: 15.0°C (59°F) [RH = 88%]
Pressure (altimeter): 29.94 inches Hg (1014.0 mb)
Winds: from the SE (130 degrees) at 8 MPH (7 knots; 3.6 m/s)
Visibility: 6 miles ( 9 km)
Ceiling: 12000 feet AGL
Clouds: scattered clouds at 1400 feet AGL
broken clouds at 12000 feet AGL
Weather: no significant weather observed at this time

METAR text: EINN 240830Z 14008KT 9999 FEW030 BKN120 17/15 Q1014 NOSIG
Conditions at: EINN (SHANNON AIRPORT , IE) observed 0830 UTC 24 August 2019
Temperature: 17.0°C (63°F)
Dewpoint: 15.0°C (59°F) [RH = 88%]
Pressure (altimeter): 29.94 inches Hg (1014.0 mb)
Winds: from the SE (140 degrees) at 9 MPH (8 knots; 4.1 m/s)
Visibility: 6 or more miles (10+ km)
Ceiling: 12000 feet AGL
Clouds: few clouds at 3000 feet AGL
broken clouds at 12000 feet AGL
Weather: no significant weather observed at this time

METAR text: EINN 240800Z 13008KT 9999 FEW030 SCT120 BKN160 17/15 Q1014 NOSIG
Conditions at: EINN (SHANNON AIRPORT , IE) observed 0800 UTC 24 August 2019
Temperature: 17.0°C (63°F)
Dewpoint: 15.0°C (59°F) [RH = 88%]
Pressure (altimeter): 29.94 inches Hg (1014.0 mb)
Winds: from the SE (130 degrees) at 9 MPH (8 knots; 4.1 m/s)
Visibility: 6 or more miles (10+ km)
Ceiling: 16000 feet AGL
Clouds: few clouds at 3000 feet AGL
scattered clouds at 12000 feet AGL
broken clouds at 16000 feet AGL
Weather: no significant weather observed at this time

METAR text: EINN 240730Z 13008KT 9999 FEW030 SCT120 BKN160 17/15 Q1014 NOSIG
Conditions at: EINN (SHANNON AIRPORT , IE) observed 0730 UTC 24 August 2019
Temperature: 17.0°C (63°F)
Dewpoint: 15.0°C (59°F) [RH = 88%]
Pressure (altimeter): 29.94 inches Hg (1014.0 mb)
Winds: from the SE (130 degrees) at 9 MPH (8 knots; 4.1 m/s)
Visibility: 6 or more miles (10+ km)
Ceiling: 16000 feet AGL
Clouds: few clouds at 3000 feet AGL
scattered clouds at 12000 feet AGL
broken clouds at 16000 feet AGL
Weather: no significant weather observed at this time

METAR text: EINN 240700Z 12006KT 9999 FEW018 SCT032 BKN090 16/14 Q1014 NOSIG
Conditions at: EINN (SHANNON AIRPORT , IE) observed 0700 UTC 24 August 2019
Temperature: 16.0°C (61°F)
Dewpoint: 14.0°C (57°F) [RH = 88%]
Pressure (altimeter): 29.94 inches Hg (1014.0 mb)
Winds: from the ESE (120 degrees) at 7 MPH (6 knots; 3.1 m/s)
Visibility: 6 or more miles (10+ km)
Ceiling: 9000 feet AGL
Clouds: few clouds at 1800 feet AGL
scattered clouds at 3200 feet AGL
broken clouds at 9000 feet AGL
Weather: no significant weather observed at this time

METAR text: EINN 240630Z 10006KT 9999 FEW009 SCT032 BKN090 16/14 Q1014 NOSIG
Conditions at: EINN (SHANNON AIRPORT , IE) observed 0630 UTC 24 August 2019
Temperature: 16.0°C (61°F)
Dewpoint: 14.0°C (57°F) [RH = 88%]
Pressure (altimeter): 29.94 inches Hg (1014.0 mb)
Winds: from the E (100 degrees) at 7 MPH (6 knots; 3.1 m/s)
Visibility: 6 or more miles (10+ km)
Ceiling: 9000 feet AGL
Clouds: few clouds at 900 feet AGL
scattered clouds at 3200 feet AGL
broken clouds at 9000 feet AGL
Weather: no significant weather observed at this time

METAR text: EINN 240600Z 12006KT 9000 FEW009 SCT024 BKN090 15/14 Q1014 NOSIG
Conditions at: EINN (SHANNON AIRPORT , IE) observed 0600 UTC 24 August 2019
Temperature: 15.0°C (59°F)
Dewpoint: 14.0°C (57°F) [RH = 94%]
Pressure (altimeter): 29.94 inches Hg (1014.0 mb)
Winds: from the ESE (120 degrees) at 7 MPH (6 knots; 3.1 m/s)
Visibility: 6 miles ( 9 km)
Ceiling: 9000 feet AGL
Clouds: few clouds at 900 feet AGL
scattered clouds at 2400 feet AGL
broken clouds at 9000 feet AGL
Weather: no significant weather observed at this time

METAR text: EINN 240530Z 11005KT 9999 FEW008 SCT022 BKN090 15/14 Q1014 NOSIG
Conditions at: EINN (SHANNON AIRPORT , IE) observed 0530 UTC 24 August 2019
Temperature: 15.0°C (59°F)
Dewpoint: 14.0°C (57°F) [RH = 94%]
Pressure (altimeter): 29.94 inches Hg (1014.0 mb)
Winds: from the ESE (110 degrees) at 6 MPH (5 knots; 2.6 m/s)
Visibility: 6 or more miles (10+ km)
Ceiling: 9000 feet AGL
Clouds: few clouds at 800 feet AGL
scattered clouds at 2200 feet AGL
broken clouds at 9000 feet AGL
Weather: no significant weather observed at this time

METAR text: EINN 240500Z 11008KT 9999 FEW022 BKN080 15/14 Q1014 NOSIG
Conditions at: EINN (SHANNON AIRPORT , IE) observed 0500 UTC 24 August 2019
Temperature: 15.0°C (59°F)
Dewpoint: 14.0°C (57°F) [RH = 94%]
Pressure (altimeter): 29.94 inches Hg (1014.0 mb)
Winds: from the ESE (110 degrees) at 9 MPH (8 knots; 4.1 m/s)
Visibility: 6 or more miles (10+ km)
Ceiling: 8000 feet AGL
Clouds: few clouds at 2200 feet AGL
broken clouds at 8000 feet AGL
Weather: no significant weather observed at this time

METAR text: EINN 240430Z 12007KT 9999 -RA FEW022 BKN090 15/13 Q1014 NOSIG
Conditions at: EINN (SHANNON AIRPORT , IE) observed 0430 UTC 24 August 2019
Temperature: 15.0°C (59°F)
Dewpoint: 13.0°C (55°F) [RH = 88%]
Pressure (altimeter): 29.94 inches Hg (1014.0 mb)
Winds: from the ESE (120 degrees) at 8 MPH (7 knots; 3.6 m/s)
Visibility: 6 or more miles (10+ km)
Ceiling: 9000 feet AGL
Clouds: few clouds at 2200 feet AGL
broken clouds at 9000 feet AGL
Weather: -RA  (light rain)

METAR text: EINN 240400Z 12005KT 9999 FEW035 BKN120 15/13 Q1014 NOSIG
Conditions at: EINN (SHANNON AIRPORT , IE) observed 0400 UTC 24 August 2019
Temperature: 15.0°C (59°F)
Dewpoint: 13.0°C (55°F) [RH = 88%]
Pressure (altimeter): 29.94 inches Hg (1014.0 mb)
Winds: from the ESE (120 degrees) at 6 MPH (5 knots; 2.6 m/s)
Visibility: 6 or more miles (10+ km)
Ceiling: 12000 feet AGL
Clouds: few clouds at 3500 feet AGL
broken clouds at 12000 feet AGL
Weather: no significant weather observed at this time

METAR text: EINN 240330Z 11005KT 9999 FEW035 BKN120 15/13 Q1015 NOSIG
Conditions at: EINN (SHANNON AIRPORT , IE) observed 0330 UTC 24 August 2019
Temperature: 15.0°C (59°F)
Dewpoint: 13.0°C (55°F) [RH = 88%]
Pressure (altimeter): 29.97 inches Hg (1015.0 mb)
Winds: from the ESE (110 degrees) at 6 MPH (5 knots; 2.6 m/s)
Visibility: 6 or more miles (10+ km)
Ceiling: 12000 feet AGL
Clouds: few clouds at 3500 feet AGL
broken clouds at 12000 feet AGL
Weather: no significant weather observed at this time

METAR text: EINN 240300Z 12007KT 9999 FEW035 BKN120 15/13 Q1015 NOSIG
Conditions at: EINN (SHANNON AIRPORT , IE) observed 0300 UTC 24 August 2019
Temperature: 15.0°C (59°F)
Dewpoint: 13.0°C (55°F) [RH = 88%]
Pressure (altimeter): 29.97 inches Hg (1015.0 mb)
Winds: from the ESE (120 degrees) at 8 MPH (7 knots; 3.6 m/s)
Visibility: 6 or more miles (10+ km)
Ceiling: 12000 feet AGL
Clouds: few clouds at 3500 feet AGL
broken clouds at 12000 feet AGL
Weather: no significant weather observed at this time

METAR text: EINN 240230Z 12009KT 9999 FEW035 BKN130 15/13 Q1015 NOSIG
Conditions at: EINN (SHANNON AIRPORT , IE) observed 0230 UTC 24 August 2019
Temperature: 15.0°C (59°F)
Dewpoint: 13.0°C (55°F) [RH = 88%]
Pressure (altimeter): 29.97 inches Hg (1015.0 mb)
Winds: from the ESE (120 degrees) at 10 MPH (9 knots; 4.6 m/s)
Visibility: 6 or more miles (10+ km)
Ceiling: 13000 feet AGL
Clouds: few clouds at 3500 feet AGL
broken clouds at 13000 feet AGL
Weather: no significant weather observed at this time

METAR text: EINN 240200Z 12008KT 9999 FEW035 BKN130 15/13 Q1015 NOSIG
Conditions at: EINN (SHANNON AIRPORT , IE) observed 0200 UTC 24 August 2019
Temperature: 15.0°C (59°F)
Dewpoint: 13.0°C (55°F) [RH = 88%]
Pressure (altimeter): 29.97 inches Hg (1015.0 mb)
Winds: from the ESE (120 degrees) at 9 MPH (8 knots; 4.1 m/s)
Visibility: 6 or more miles (10+ km)
Ceiling: 13000 feet AGL
Clouds: few clouds at 3500 feet AGL
broken clouds at 13000 feet AGL
Weather: no significant weather observed at this time

METAR text: EINN 240130Z 12008KT 9999 FEW035 BKN130 15/13 Q1015 NOSIG
Conditions at: EINN (SHANNON AIRPORT , IE) observed 0130 UTC 24 August 2019
Temperature: 15.0°C (59°F)
Dewpoint: 13.0°C (55°F) [RH = 88%]
Pressure (altimeter): 29.97 inches Hg (1015.0 mb)
Winds: from the ESE (120 degrees) at 9 MPH (8 knots; 4.1 m/s)
Visibility: 6 or more miles (10+ km)
Ceiling: 13000 feet AGL
Clouds: few clouds at 3500 feet AGL
broken clouds at 13000 feet AGL
Weather: no significant weather observed at this time

METAR text: EINN 240100Z 13007KT 9999 FEW035 BKN130 15/13 Q1016 NOSIG
Conditions at: EINN (SHANNON AIRPORT , IE) observed 0100 UTC 24 August 2019
Temperature: 15.0°C (59°F)
Dewpoint: 13.0°C (55°F) [RH = 88%]
Pressure (altimeter): 30.00 inches Hg (1016.0 mb)
Winds: from the SE (130 degrees) at 8 MPH (7 knots; 3.6 m/s)
Visibility: 6 or more miles (10+ km)
Ceiling: 13000 feet AGL
Clouds: few clouds at 3500 feet AGL
broken clouds at 13000 feet AGL
Weather: no significant weather observed at this time

METAR text: EINN 240030Z 13008KT 9999 FEW035 BKN130 15/13 Q1016 NOSIG
Conditions at: EINN (SHANNON AIRPORT , IE) observed 0030 UTC 24 August 2019
Temperature: 15.0°C (59°F)
Dewpoint: 13.0°C (55°F) [RH = 88%]
Pressure (altimeter): 30.00 inches Hg (1016.0 mb)
Winds: from the SE (130 degrees) at 9 MPH (8 knots; 4.1 m/s)
Visibility: 6 or more miles (10+ km)
Ceiling: 13000 feet AGL
Clouds: few clouds at 3500 feet AGL
broken clouds at 13000 feet AGL
Weather: no significant weather observed at this time

METAR text: EINN 240000Z 13011KT 9999 FEW035 BKN130 15/13 Q1016 NOSIG
Conditions at: EINN (SHANNON AIRPORT , IE) observed 0000 UTC 24 August 2019
Temperature: 15.0°C (59°F)
Dewpoint: 13.0°C (55°F) [RH = 88%]
Pressure (altimeter): 30.00 inches Hg (1016.0 mb)
Winds: from the SE (130 degrees) at 13 MPH (11 knots; 5.7 m/s)
Visibility: 6 or more miles (10+ km)
Ceiling: 13000 feet AGL
Clouds: few clouds at 3500 feet AGL
broken clouds at 13000 feet AGL
Weather: no significant weather observed at this time

METAR text: EINN 232330Z 13012KT 9999 FEW035 BKN130 15/13 Q1016 NOSIG
Conditions at: EINN (SHANNON AIRPORT , IE) observed 2330 UTC 23 August 2019
Temperature: 15.0°C (59°F)
Dewpoint: 13.0°C (55°F) [RH = 88%]
Pressure (altimeter): 30.00 inches Hg (1016.0 mb)
Winds: from the SE (130 degrees) at 14 MPH (12 knots; 6.2 m/s)
Visibility: 6 or more miles (10+ km)
Ceiling: 13000 feet AGL
Clouds: few clouds at 3500 feet AGL
broken clouds at 13000 feet AGL
Weather: no significant weather observed at this time

METAR text: EINN 232300Z 14011KT 9999 FEW035 BKN130 15/13 Q1016 NOSIG
Conditions at: EINN (SHANNON AIRPORT , IE) observed 2300 UTC 23 August 2019
Temperature: 15.0°C (59°F)
Dewpoint: 13.0°C (55°F) [RH = 88%]
Pressure (altimeter): 30.00 inches Hg (1016.0 mb)
Winds: from the SE (140 degrees) at 13 MPH (11 knots; 5.7 m/s)
Visibility: 6 or more miles (10+ km)
Ceiling: 13000 feet AGL
Clouds: few clouds at 3500 feet AGL
broken clouds at 13000 feet AGL
Weather: no significant weather observed at this time

METAR text: EINN 232230Z 15009KT 9999 FEW035 BKN140 15/13 Q1016 NOSIG
Conditions at: EINN (SHANNON AIRPORT , IE) observed 2230 UTC 23 August 2019
Temperature: 15.0°C (59°F)
Dewpoint: 13.0°C (55°F) [RH = 88%]
Pressure (altimeter): 30.00 inches Hg (1016.0 mb)
Winds: from the SSE (150 degrees) at 10 MPH (9 knots; 4.6 m/s)
Visibility: 6 or more miles (10+ km)
Ceiling: 14000 feet AGL
Clouds: few clouds at 3500 feet AGL
broken clouds at 14000 feet AGL
Weather: no significant weather observed at this time

METAR text: EINN 232200Z 15012KT 9999 FEW035 SCT140 BKN200 15/13 Q1016 NOSIG
Conditions at: EINN (SHANNON AIRPORT , IE) observed 2200 UTC 23 August 2019
Temperature: 15.0°C (59°F)
Dewpoint: 13.0°C (55°F) [RH = 88%]
Pressure (altimeter): 30.00 inches Hg (1016.0 mb)
Winds: from the SSE (150 degrees) at 14 MPH (12 knots; 6.2 m/s)
Visibility: 6 or more miles (10+ km)
Ceiling: 20000 feet AGL
Clouds: few clouds at 3500 feet AGL
scattered clouds at 14000 feet AGL
broken clouds at 20000 feet AGL
Weather: no significant weather observed at this time

METAR text: EINN 232130Z 14009KT 9999 FEW035 SCT140 BKN200 16/13 Q1016 NOSIG
Conditions at: EINN (SHANNON AIRPORT , IE) observed 2130 UTC 23 August 2019
Temperature: 16.0°C (61°F)
Dewpoint: 13.0°C (55°F) [RH = 82%]
Pressure (altimeter): 30.00 inches Hg (1016.0 mb)
Winds: from the SE (140 degrees) at 10 MPH (9 knots; 4.6 m/s)
Visibility: 6 or more miles (10+ km)
Ceiling: 20000 feet AGL
Clouds: few clouds at 3500 feet AGL
scattered clouds at 14000 feet AGL
broken clouds at 20000 feet AGL
Weather: no significant weather observed at this time

METAR text: EINN 232100Z 14011KT 9999 FEW035 SCT140 BKN200 16/13 Q1016 NOSIG
Conditions at: EINN (SHANNON AIRPORT , IE) observed 2100 UTC 23 August 2019
Temperature: 16.0°C (61°F)
Dewpoint: 13.0°C (55°F) [RH = 82%]
Pressure (altimeter): 30.00 inches Hg (1016.0 mb)
Winds: from the SE (140 degrees) at 13 MPH (11 knots; 5.7 m/s)
Visibility: 6 or more miles (10+ km)
Ceiling: 20000 feet AGL
Clouds: few clouds at 3500 feet AGL
scattered clouds at 14000 feet AGL
broken clouds at 20000 feet AGL
Weather: no significant weather observed at this time

METAR text: EINN 232030Z 15009KT 9999 FEW032 SCT140 16/13 Q1016 NOSIG
Conditions at: EINN (SHANNON AIRPORT , IE) observed 2030 UTC 23 August 2019
Temperature: 16.0°C (61°F)
Dewpoint: 13.0°C (55°F) [RH = 82%]
Pressure (altimeter): 30.00 inches Hg (1016.0 mb)
Winds: from the SSE (150 degrees) at 10 MPH (9 knots; 4.6 m/s)
Visibility: 6 or more miles (10+ km)
Ceiling: at least 12,000 feet AGL
Clouds: few clouds at 3200 feet AGL
scattered clouds at 14000 feet AGL
Weather: no significant weather observed at this time

METAR text: EINN 232000Z 15010KT 9999 FEW032 BKN160 16/13 Q1016 NOSIG
Conditions at: EINN (SHANNON AIRPORT , IE) observed 2000 UTC 23 August 2019
Temperature: 16.0°C (61°F)
Dewpoint: 13.0°C (55°F) [RH = 82%]
Pressure (altimeter): 30.00 inches Hg (1016.0 mb)
Winds: from the SSE (150 degrees) at 12 MPH (10 knots; 5.1 m/s)
Visibility: 6 or more miles (10+ km)
Ceiling: 16000 feet AGL
Clouds: few clouds at 3200 feet AGL
broken clouds at 16000 feet AGL
Weather: no significant weather observed at this time

METAR text: EINN 231930Z 15010KT 9999 FEW032 SCT160 17/13 Q1017 NOSIG
Conditions at: EINN (SHANNON AIRPORT , IE) observed 1930 UTC 23 August 2019
Temperature: 17.0°C (63°F)
Dewpoint: 13.0°C (55°F) [RH = 77%]
Pressure (altimeter): 30.03 inches Hg (1017.0 mb)
Winds: from the SSE (150 degrees) at 12 MPH (10 knots; 5.1 m/s)
Visibility: 6 or more miles (10+ km)
Ceiling: at least 12,000 feet AGL
Clouds: few clouds at 3200 feet AGL
scattered clouds at 16000 feet AGL
Weather: no significant weather observed at this time

METAR text: EINN 231900Z 16013KT 9999 FEW032 BKN200 17/13 Q1016 NOSIG
Conditions at: EINN (SHANNON AIRPORT , IE) observed 1900 UTC 23 August 2019
Temperature: 17.0°C (63°F)
Dewpoint: 13.0°C (55°F) [RH = 77%]
Pressure (altimeter): 30.00 inches Hg (1016.0 mb)
Winds: from the SSE (160 degrees) at 15 MPH (13 knots; 6.7 m/s)
Visibility: 6 or more miles (10+ km)
Ceiling: 20000 feet AGL
Clouds: few clouds at 3200 feet AGL
broken clouds at 20000 feet AGL
Weather: no significant weather observed at this time

METAR text: EINN 231830Z 16014KT 9999 FEW032 BKN200 18/12 Q1016 NOSIG
Conditions at: EINN (SHANNON AIRPORT , IE) observed 1830 UTC 23 August 2019
Temperature: 18.0°C (64°F)
Dewpoint: 12.0°C (54°F) [RH = 68%]
Pressure (altimeter): 30.00 inches Hg (1016.0 mb)
Winds: from the SSE (160 degrees) at 16 MPH (14 knots; 7.2 m/s)
Visibility: 6 or more miles (10+ km)
Ceiling: 20000 feet AGL
Clouds: few clouds at 3200 feet AGL
broken clouds at 20000 feet AGL
Weather: no significant weather observed at this time

METAR text: EINN 231800Z 17017KT 9999 FEW032 BKN160 18/12 Q1017 NOSIG
Conditions at: EINN (SHANNON AIRPORT , IE) observed 1800 UTC 23 August 2019
Temperature: 18.0°C (64°F)
Dewpoint: 12.0°C (54°F) [RH = 68%]
Pressure (altimeter): 30.03 inches Hg (1017.0 mb)
Winds: from the S (170 degrees) at 20 MPH (17 knots; 8.7 m/s)
Visibility: 6 or more miles (10+ km)
Ceiling: 16000 feet AGL
Clouds: few clouds at 3200 feet AGL
broken clouds at 16000 feet AGL
Weather: no significant weather observed at this time

METAR text: EINN 231730Z 17016KT 9999 FEW032 BKN160 19/12 Q1017 NOSIG
Conditions at: EINN (SHANNON AIRPORT , IE) observed 1730 UTC 23 August 2019
Temperature: 19.0°C (66°F)
Dewpoint: 12.0°C (54°F) [RH = 64%]
Pressure (altimeter): 30.03 inches Hg (1017.0 mb)
Winds: from the S (170 degrees) at 18 MPH (16 knots; 8.2 m/s)
Visibility: 6 or more miles (10+ km)
Ceiling: 16000 feet AGL
Clouds: few clouds at 3200 feet AGL
broken clouds at 16000 feet AGL
Weather: no significant weather observed at this time

METAR text: EINN 231700Z 17012KT 9999 FEW032 BKN160 19/12 Q1017 NOSIG
Conditions at: EINN (SHANNON AIRPORT , IE) observed 1700 UTC 23 August 2019
Temperature: 19.0°C (66°F)
Dewpoint: 12.0°C (54°F) [RH = 64%]
Pressure (altimeter): 30.03 inches Hg (1017.0 mb)
Winds: from the S (170 degrees) at 14 MPH (12 knots; 6.2 m/s)
Visibility: 6 or more miles (10+ km)
Ceiling: 16000 feet AGL
Clouds: few clouds at 3200 feet AGL
broken clouds at 16000 feet AGL
Weather: no significant weather observed at this time

METAR text: EINN 231630Z 16014KT 9999 FEW032 BKN160 19/12 Q1017 NOSIG
Conditions at: EINN (SHANNON AIRPORT , IE) observed 1630 UTC 23 August 2019
Temperature: 19.0°C (66°F)
Dewpoint: 12.0°C (54°F) [RH = 64%]
Pressure (altimeter): 30.03 inches Hg (1017.0 mb)
Winds: from the SSE (160 degrees) at 16 MPH (14 knots; 7.2 m/s)
Visibility: 6 or more miles (10+ km)
Ceiling: 16000 feet AGL
Clouds: few clouds at 3200 feet AGL
broken clouds at 16000 feet AGL
Weather: no significant weather observed at this time

METAR text: EINN 231600Z 16013KT 9999 FEW032 BKN180 20/13 Q1017 NOSIG
Conditions at: EINN (SHANNON AIRPORT , IE) observed 1600 UTC 23 August 2019
Temperature: 20.0°C (68°F)
Dewpoint: 13.0°C (55°F) [RH = 64%]
Pressure (altimeter): 30.03 inches Hg (1017.0 mb)
Winds: from the SSE (160 degrees) at 15 MPH (13 knots; 6.7 m/s)
Visibility: 6 or more miles (10+ km)
Ceiling: 18000 feet AGL
Clouds: few clouds at 3200 feet AGL
broken clouds at 18000 feet AGL
Weather: no significant weather observed at this time

METAR text: EINN 231530Z 17013KT 9999 SCT032 BKN200 20/12 Q1018 NOSIG
Conditions at: EINN (SHANNON AIRPORT , IE) observed 1530 UTC 23 August 2019
Temperature: 20.0°C (68°F)
Dewpoint: 12.0°C (54°F) [RH = 60%]
Pressure (altimeter): 30.06 inches Hg (1018.0 mb)
Winds: from the S (170 degrees) at 15 MPH (13 knots; 6.7 m/s)
Visibility: 6 or more miles (10+ km)
Ceiling: 20000 feet AGL
Clouds: scattered clouds at 3200 feet AGL
broken clouds at 20000 feet AGL
Weather: no significant weather observed at this time

METAR text: EINN 231500Z 17014KT 130V190 9999 FEW018 BKN028 BKN180 20/13 Q1018 NOSIG
Conditions at: EINN (SHANNON AIRPORT , IE) observed 1500 UTC 23 August 2019
Temperature: 20.0°C (68°F)
Dewpoint: 13.0°C (55°F) [RH = 64%]
Pressure (altimeter): 30.06 inches Hg (1018.0 mb)
Winds: from the S (170 degrees) at 16 MPH (14 knots; 7.2 m/s)
Visibility: 6 or more miles (10+ km)
Ceiling: 2800 feet AGL
Clouds: few clouds at 1800 feet AGL
broken clouds at 2800 feet AGL
broken clouds at 18000 feet AGL
Weather: no significant weather observed at this time

METAR text: EINN 231430Z 18013KT 9999 FEW018 BKN025 BKN200 20/14 Q1018 NOSIG
Conditions at: EINN (SHANNON AIRPORT , IE) observed 1430 UTC 23 August 2019
Temperature: 20.0°C (68°F)
Dewpoint: 14.0°C (57°F) [RH = 68%]
Pressure (altimeter): 30.06 inches Hg (1018.0 mb)
Winds: from the S (180 degrees) at 15 MPH (13 knots; 6.7 m/s)
Visibility: 6 or more miles (10+ km)
Ceiling: 2500 feet AGL
Clouds: few clouds at 1800 feet AGL
broken clouds at 2500 feet AGL
broken clouds at 20000 feet AGL
Weather: no significant weather observed at this time

METAR text: EINN 231400Z 16010KT 9999 FEW018 BKN024 BKN200 19/14 Q1019 NOSIG
Conditions at: EINN (SHANNON AIRPORT , IE) observed 1400 UTC 23 August 2019
Temperature: 19.0°C (66°F)
Dewpoint: 14.0°C (57°F) [RH = 73%]
Pressure (altimeter): 30.09 inches Hg (1019.0 mb)
Winds: from the SSE (160 degrees) at 12 MPH (10 knots; 5.1 m/s)
Visibility: 6 or more miles (10+ km)
Ceiling: 2400 feet AGL
Clouds: few clouds at 1800 feet AGL
broken clouds at 2400 feet AGL
broken clouds at 20000 feet AGL
Weather: no significant weather observed at this time

METAR text: EINN 231330Z 17013KT 9999 FEW018 BKN026 18/14 Q1019 NOSIG
Conditions at: EINN (SHANNON AIRPORT , IE) observed 1330 UTC 23 August 2019
Temperature: 18.0°C (64°F)
Dewpoint: 14.0°C (57°F) [RH = 77%]
Pressure (altimeter): 30.09 inches Hg (1019.0 mb)
Winds: from the S (170 degrees) at 15 MPH (13 knots; 6.7 m/s)
Visibility: 6 or more miles (10+ km)
Ceiling: 2600 feet AGL
Clouds: few clouds at 1800 feet AGL
broken clouds at 2600 feet AGL
Weather: no significant weather observed at this time

METAR text: EINN 231300Z 17015KT 9999 FEW018 BKN025 18/14 Q1019 NOSIG
Conditions at: EINN (SHANNON AIRPORT , IE) observed 1300 UTC 23 August 2019
Temperature: 18.0°C (64°F)
Dewpoint: 14.0°C (57°F) [RH = 77%]
Pressure (altimeter): 30.09 inches Hg (1019.0 mb)
Winds: from the S (170 degrees) at 17 MPH (15 knots; 7.7 m/s)
Visibility: 6 or more miles (10+ km)
Ceiling: 2500 feet AGL
Clouds: few clouds at 1800 feet AGL
broken clouds at 2500 feet AGL
Weather: no significant weather observed at this time

METAR text: EINN 231230Z 17014KT 9999 FEW019 BKN023 18/14 Q1019 NOSIG
Conditions at: EINN (SHANNON AIRPORT , IE) observed 1230 UTC 23 August 2019
Temperature: 18.0°C (64°F)
Dewpoint: 14.0°C (57°F) [RH = 77%]
Pressure (altimeter): 30.09 inches Hg (1019.0 mb)
Winds: from the S (170 degrees) at 16 MPH (14 knots; 7.2 m/s)
Visibility: 6 or more miles (10+ km)
Ceiling: 2300 feet AGL
Clouds: few clouds at 1900 feet AGL
broken clouds at 2300 feet AGL
Weather: no significant weather observed at this time

METAR text: EINN 231200Z 17016KT 9999 BKN023 18/13 Q1019 NOSIG
Conditions at: EINN (SHANNON AIRPORT , IE) observed 1200 UTC 23 August 2019
Temperature: 18.0°C (64°F)
Dewpoint: 13.0°C (55°F) [RH = 73%]
Pressure (altimeter): 30.09 inches Hg (1019.0 mb)
Winds: from the S (170 degrees) at 18 MPH (16 knots; 8.2 m/s)
Visibility: 6 or more miles (10+ km)
Ceiling: 2300 feet AGL
Clouds: broken clouds at 2300 feet AGL
Weather: no significant weather observed at this time

METAR text: EINN 231130Z 18011KT 9999 BKN023 18/13 Q1019 NOSIG
Conditions at: EINN (SHANNON AIRPORT , IE) observed 1130 UTC 23 August 2019
Temperature: 18.0°C (64°F)
Dewpoint: 13.0°C (55°F) [RH = 73%]
Pressure (altimeter): 30.09 inches Hg (1019.0 mb)
Winds: from the S (180 degrees) at 13 MPH (11 knots; 5.7 m/s)
Visibility: 6 or more miles (10+ km)
Ceiling: 2300 feet AGL
Clouds: broken clouds at 2300 feet AGL
Weather: no significant weather observed at this time

METAR text: EINN 231100Z 16014KT 9999 FEW019 BKN024 18/13 Q1019 NOSIG
Conditions at: EINN (SHANNON AIRPORT , IE) observed 1100 UTC 23 August 2019
Temperature: 18.0°C (64°F)
Dewpoint: 13.0°C (55°F) [RH = 73%]
Pressure (altimeter): 30.09 inches Hg (1019.0 mb)
Winds: from the SSE (160 degrees) at 16 MPH (14 knots; 7.2 m/s)
Visibility: 6 or more miles (10+ km)
Ceiling: 2400 feet AGL
Clouds: few clouds at 1900 feet AGL
broken clouds at 2400 feet AGL
Weather: no significant weather observed at this time

METAR text: EINN 231030Z 16015KT 9999 FEW020 SCT024 BKN200 19/13 Q1019 NOSIG
Conditions at: EINN (SHANNON AIRPORT , IE) observed 1030 UTC 23 August 2019
Temperature: 19.0°C (66°F)
Dewpoint: 13.0°C (55°F) [RH = 68%]
Pressure (altimeter): 30.09 inches Hg (1019.0 mb)
Winds: from the SSE (160 degrees) at 17 MPH (15 knots; 7.7 m/s)
Visibility: 6 or more miles (10+ km)
Ceiling: 20000 feet AGL
Clouds: few clouds at 2000 feet AGL
scattered clouds at 2400 feet AGL
broken clouds at 20000 feet AGL
Weather: no significant weather observed at this time

METAR text: EINN 231000Z 16014KT 9999 FEW021 BKN200 18/13 Q1020 NOSIG
Conditions at: EINN (SHANNON AIRPORT , IE) observed 1000 UTC 23 August 2019
Temperature: 18.0°C (64°F)
Dewpoint: 13.0°C (55°F) [RH = 73%]
Pressure (altimeter): 30.12 inches Hg (1020.0 mb)
Winds: from the SSE (160 degrees) at 16 MPH (14 knots; 7.2 m/s)
Visibility: 6 or more miles (10+ km)
Ceiling: 20000 feet AGL
Clouds: few clouds at 2100 feet AGL
broken clouds at 20000 feet AGL
Weather: no significant weather observed at this time

METAR text: EINN 230930Z 15011KT 9999 FEW018 BKN200 18/13 Q1020 NOSIG
Conditions at: EINN (SHANNON AIRPORT , IE) observed 0930 UTC 23 August 2019
Temperature: 18.0°C (64°F)
Dewpoint: 13.0°C (55°F) [RH = 73%]
Pressure (altimeter): 30.12 inches Hg (1020.0 mb)
Winds: from the SSE (150 degrees) at 13 MPH (11 knots; 5.7 m/s)
Visibility: 6 or more miles (10+ km)
Ceiling: 20000 feet AGL
Clouds: few clouds at 1800 feet AGL
broken clouds at 20000 feet AGL
Weather: no significant weather observed at this time

METAR text: EINN 230900Z 16015KT 9999 FEW018 BKN220 18/13 Q1020 NOSIG
Conditions at: EINN (SHANNON AIRPORT , IE) observed 0900 UTC 23 August 2019
Temperature: 18.0°C (64°F)
Dewpoint: 13.0°C (55°F) [RH = 73%]
Pressure (altimeter): 30.12 inches Hg (1020.0 mb)
Winds: from the SSE (160 degrees) at 17 MPH (15 knots; 7.7 m/s)
Visibility: 6 or more miles (10+ km)
Ceiling: 22000 feet AGL
Clouds: few clouds at 1800 feet AGL
broken clouds at 22000 feet AGL
Weather: no significant weather observed at this time

METAR text: EINN 230830Z 15015KT 9999 FEW025 SCT220 17/13 Q1020 NOSIG
Conditions at: EINN (SHANNON AIRPORT , IE) observed 0830 UTC 23 August 2019
Temperature: 17.0°C (63°F)
Dewpoint: 13.0°C (55°F) [RH = 77%]
Pressure (altimeter): 30.12 inches Hg (1020.0 mb)
Winds: from the SSE (150 degrees) at 17 MPH (15 knots; 7.7 m/s)
Visibility: 6 or more miles (10+ km)
Ceiling: at least 12,000 feet AGL
Clouds: few clouds at 2500 feet AGL
scattered clouds at 22000 feet AGL
Weather: no significant weather observed at this time

METAR text: EINN 230800Z 13009KT 9999 FEW025 SCT230 16/13 Q1020 NOSIG
Conditions at: EINN (SHANNON AIRPORT , IE) observed 0800 UTC 23 August 2019
Temperature: 16.0°C (61°F)
Dewpoint: 13.0°C (55°F) [RH = 82%]
Pressure (altimeter): 30.12 inches Hg (1020.0 mb)
Winds: from the SE (130 degrees) at 10 MPH (9 knots; 4.6 m/s)
Visibility: 6 or more miles (10+ km)
Ceiling: at least 12,000 feet AGL
Clouds: few clouds at 2500 feet AGL
scattered clouds at 23000 feet AGL
Weather: no significant weather observed at this time

METAR text: EINN 230730Z 14012KT 9999 FEW025 SCT200 15/12 Q1020 NOSIG
Conditions at: EINN (SHANNON AIRPORT , IE) observed 0730 UTC 23 August 2019
Temperature: 15.0°C (59°F)
Dewpoint: 12.0°C (54°F) [RH = 82%]
Pressure (altimeter): 30.12 inches Hg (1020.0 mb)
Winds: from the SE (140 degrees) at 14 MPH (12 knots; 6.2 m/s)
Visibility: 6 or more miles (10+ km)
Ceiling: at least 12,000 feet AGL
Clouds: few clouds at 2500 feet AGL
scattered clouds at 20000 feet AGL
Weather: no significant weather observed at this time

METAR text: EINN 230700Z 15011KT 9999 FEW042 14/12 Q1020 NOSIG
Conditions at: EINN (SHANNON AIRPORT , IE) observed 0700 UTC 23 August 2019
Temperature: 14.0°C (57°F)
Dewpoint: 12.0°C (54°F) [RH = 88%]
Pressure (altimeter): 30.12 inches Hg (1020.0 mb)
Winds: from the SSE (150 degrees) at 13 MPH (11 knots; 5.7 m/s)
Visibility: 6 or more miles (10+ km)
Ceiling: at least 12,000 feet AGL
Clouds: few clouds at 4200 feet AGL
Weather: no significant weather observed at this time

METAR text: EINN 230630Z 14010KT 9999 FEW037 14/12 Q1020 NOSIG
Conditions at: EINN (SHANNON AIRPORT , IE) observed 0630 UTC 23 August 2019
Temperature: 14.0°C (57°F)
Dewpoint: 12.0°C (54°F) [RH = 88%]
Pressure (altimeter): 30.12 inches Hg (1020.0 mb)
Winds: from the SE (140 degrees) at 12 MPH (10 knots; 5.1 m/s)
Visibility: 6 or more miles (10+ km)
Ceiling: at least 12,000 feet AGL
Clouds: few clouds at 3700 feet AGL
Weather: no significant weather observed at this time

METAR text: EINN 230600Z 14008KT 9999 FEW037 14/12 Q1020 NOSIG
Conditions at: EINN (SHANNON AIRPORT , IE) observed 0600 UTC 23 August 2019
Temperature: 14.0°C (57°F)
Dewpoint: 12.0°C (54°F) [RH = 88%]
Pressure (altimeter): 30.12 inches Hg (1020.0 mb)
Winds: from the SE (140 degrees) at 9 MPH (8 knots; 4.1 m/s)
Visibility: 6 or more miles (10+ km)
Ceiling: at least 12,000 feet AGL
Clouds: few clouds at 3700 feet AGL
Weather: no significant weather observed at this time

METAR text: EINN 230530Z 14009KT 9999 FEW037 14/12 Q1020 NOSIG
Conditions at: EINN (SHANNON AIRPORT , IE) observed 0530 UTC 23 August 2019
Temperature: 14.0°C (57°F)
Dewpoint: 12.0°C (54°F) [RH = 88%]
Pressure (altimeter): 30.12 inches Hg (1020.0 mb)
Winds: from the SE (140 degrees) at 10 MPH (9 knots; 4.6 m/s)
Visibility: 6 or more miles (10+ km)
Ceiling: at least 12,000 feet AGL
Clouds: few clouds at 3700 feet AGL
Weather: no significant weather observed at this time

METAR text: EINN 230500Z 14010KT 9999 FEW037 14/12 Q1020 NOSIG
Conditions at: EINN (SHANNON AIRPORT , IE) observed 0500 UTC 23 August 2019
Temperature: 14.0°C (57°F)
Dewpoint: 12.0°C (54°F) [RH = 88%]
Pressure (altimeter): 30.12 inches Hg (1020.0 mb)
Winds: from the SE (140 degrees) at 12 MPH (10 knots; 5.1 m/s)
Visibility: 6 or more miles (10+ km)
Ceiling: at least 12,000 feet AGL
Clouds: few clouds at 3700 feet AGL
Weather: no significant weather observed at this time

METAR text: EINN 230430Z 15010KT 9999 FEW037 14/13 Q1020 NOSIG
Conditions at: EINN (SHANNON AIRPORT , IE) observed 0430 UTC 23 August 2019
Temperature: 14.0°C (57°F)
Dewpoint: 13.0°C (55°F) [RH = 94%]
Pressure (altimeter): 30.12 inches Hg (1020.0 mb)
Winds: from the SSE (150 degrees) at 12 MPH (10 knots; 5.1 m/s)
Visibility: 6 or more miles (10+ km)
Ceiling: at least 12,000 feet AGL
Clouds: few clouds at 3700 feet AGL
Weather: no significant weather observed at this time

METAR text: EINN 230400Z 15008KT 9999 FEW037 14/13 Q1020 NOSIG
Conditions at: EINN (SHANNON AIRPORT , IE) observed 0400 UTC 23 August 2019
Temperature: 14.0°C (57°F)
Dewpoint: 13.0°C (55°F) [RH = 94%]
Pressure (altimeter): 30.12 inches Hg (1020.0 mb)
Winds: from the SSE (150 degrees) at 9 MPH (8 knots; 4.1 m/s)
Visibility: 6 or more miles (10+ km)
Ceiling: at least 12,000 feet AGL
Clouds: few clouds at 3700 feet AGL
Weather: no significant weather observed at this time

METAR text: EINN 230330Z 15008KT 9999 FEW037 14/13 Q1020 NOSIG
Conditions at: EINN (SHANNON AIRPORT , IE) observed 0330 UTC 23 August 2019
Temperature: 14.0°C (57°F)
Dewpoint: 13.0°C (55°F) [RH = 94%]
Pressure (altimeter): 30.12 inches Hg (1020.0 mb)
Winds: from the SSE (150 degrees) at 9 MPH (8 knots; 4.1 m/s)
Visibility: 6 or more miles (10+ km)
Ceiling: at least 12,000 feet AGL
Clouds: few clouds at 3700 feet AGL
Weather: no significant weather observed at this time

METAR text: EINN 230300Z 15005KT 9999 FEW037 14/13 Q1020 NOSIG
Conditions at: EINN (SHANNON AIRPORT , IE) observed 0300 UTC 23 August 2019
Temperature: 14.0°C (57°F)
Dewpoint: 13.0°C (55°F) [RH = 94%]
Pressure (altimeter): 30.12 inches Hg (1020.0 mb)
Winds: from the SSE (150 degrees) at 6 MPH (5 knots; 2.6 m/s)
Visibility: 6 or more miles (10+ km)
Ceiling: at least 12,000 feet AGL
Clouds: few clouds at 3700 feet AGL
Weather: no significant weather observed at this time

METAR text: EINN 230230Z 16008KT 9999 FEW037 15/13 Q1020 NOSIG
Conditions at: EINN (SHANNON AIRPORT , IE) observed 0230 UTC 23 August 2019
Temperature: 15.0°C (59°F)
Dewpoint: 13.0°C (55°F) [RH = 88%]
Pressure (altimeter): 30.12 inches Hg (1020.0 mb)
Winds: from the SSE (160 degrees) at 9 MPH (8 knots; 4.1 m/s)
Visibility: 6 or more miles (10+ km)
Ceiling: at least 12,000 feet AGL
Clouds: few clouds at 3700 feet AGL
Weather: no significant weather observed at this time

Forecast for: EINN (SHANNON AIRPORT , IE)
Text: TAF EINN 241100Z 2412/2512 15006KT 9999 FEW015
Forecast period: 1200 UTC 24 August 2019 to 1200 UTC 25 August 2019
Forecast type: FROM: standard forecast or significant change
Winds: from the SSE (150 degrees) at 7 MPH (6 knots; 3.1 m/s)
Visibility: 6 or more miles 10+ km)
Ceiling: at least 12,000 feet AGL
Clouds: few clouds at 1500 feet AGL
Weather: no significant weather forecast for this period
Text: BECMG 2412/2414 VRB03KT
Forecast period: 1200 to 1600 UTC 24 August 2019
Forecast type: BECOMING: Conditions expected to become as follows by 1400 UTC 24 August 2019
Winds: variable direction winds at 3 MPH (3 knots; 1.5 m/s)
Visibility: 6 or more miles 10+ km)
Ceiling: at least 12,000 feet AGL
Clouds: few clouds at 1500 feet AGL
Weather: no significant weather forecast for this period
Text: BECMG 2416/2418 30007KT
Forecast period: 1600 UTC 24 August 2019 to 1200 UTC 25 August 2019
Forecast type: BECOMING: Conditions expected to become as follows by 1800 UTC 24 August 2019
Winds: from the WNW (300 degrees) at 8 MPH (7 knots; 3.6 m/s)
Visibility: 6 or more miles 10+ km)
Ceiling: at least 12,000 feet AGL
Clouds: few clouds at 1500 feet AGL
Weather: no significant weather forecast for this period
Text: PROB30
Forecast period: 2300 UTC 24 August 2019 to 0200 UTC 25 August 2019
Forecast type: TEMPORARY: The following changes expected for less than half the time period
Visibility: 2.49 miles (4.01 km)
Ceiling: 700 feet AGL
Clouds: broken clouds at 700 feet AGL
Weather: BR  (mist)
Text: TEMPO 2423/2502 4000 BR BKN007
Forecast period: 0200 to 0600 UTC 25 August 2019
Forecast type: TEMPORARY: The following changes expected for less than half the time period
Visibility: 1.86 miles (2.99 km)
Ceiling: 500 feet AGL
Clouds: broken clouds at 500 feet AGL
Weather: BR  (mist)
Text: PROB40
Forecast period: 0800 to 1100 UTC 25 August 2019
Forecast type: TEMPORARY: The following changes expected for less than half the time period
Visibility: missing
Ceiling: 1000 feet AGL
Clouds: broken clouds at 1000 feet AGL
Weather: no significant weather forecast for this period